sensor_id;sensor_type;location;lat;lon;timestamp;temperature;humidity
11609;DHT22;5860;52.018;8.536;2023-07-09T00:01:50;21.60;99.90
11609;DHT22;5860;52.018;8.536;2023-07-09T00:04:18;21.60;99.90
11609;DHT22;5860;52.018;8.536;2023-07-09T00:06:46;21.60;99.90
11609;DHT22;5860;52.018;8.536;2023-07-09T00:09:15;21.50;99.90
11609;DHT22;5860;52.018;8.536;2023-07-09T00:11:43;21.50;99.90
11609;DHT22;5860;52.018;8.536;2023-07-09T00:14:13;21.50;99.90
11609;DHT22;5860;52.018;8.536;2023-07-09T00:16:42;21.50;99.90
11609;DHT22;5860;52.018;8.536;2023-07-09T00:19:15;21.30;99.90
11609;DHT22;5860;52.018;8.536;2023-07-09T00:21:48;21.20;99.90
11609;DHT22;5860;52.018;8.536;2023-07-09T00:24:16;21.10;99.90
11609;DHT22;5860;52.018;8.536;2023-07-09T00:26:42;21.00;99.90
11609;DHT22;5860;52.018;8.536;2023-07-09T00:29:11;21.00;99.90
11609;DHT22;5860;52.018;8.536;2023-07-09T00:31:38;20.90;99.90
11609;DHT22;5860;52.018;8.536;2023-07-09T00:34:12;20.80;99.90
11609;DHT22;5860;52.018;8.536;2023-07-09T00:36:41;20.80;99.90
11609;DHT22;5860;52.018;8.536;2023-07-09T00:39:21;20.70;99.90
11609;DHT22;5860;52.018;8.536;2023-07-09T00:41:50;20.70;99.90
11609;DHT22;5860;52.018;8.536;2023-07-09T00:49:26;20.80;99.90
11609;DHT22;5860;52.018;8.536;2023-07-09T00:51:58;20.70;99.90
11609;DHT22;5860;52.018;8.536;2023-07-09T00:54:37;20.60;99.90
11609;DHT22;5860;52.018;8.536;2023-07-09T00:57:14;20.60;99.90
11609;DHT22;5860;52.018;8.536;2023-07-09T00:59:47;20.50;99.90
11609;DHT22;5860;52.018;8.536;2023-07-09T01:02:15;20.50;99.90
11609;DHT22;5860;52.018;8.536;2023-07-09T01:04:42;20.40;99.90
11609;DHT22;5860;52.018;8.536;2023-07-09T01:07:09;20.30;99.90
11609;DHT22;5860;52.018;8.536;2023-07-09T01:09:36;20.30;99.90
11609;DHT22;5860;52.018;8.536;2023-07-09T01:12:09;20.30;99.90
11609;DHT22;5860;52.018;8.536;2023-07-09T01:14:37;20.40;99.90
11609;DHT22;5860;52.018;8.536;2023-07-09T01:17:06;20.50;99.90
11609;DHT22;5860;52.018;8.536;2023-07-09T01:19:42;20.50;99.90
11609;DHT22;5860;52.018;8.536;2023-07-09T01:22:15;20.50;99.90
11609;DHT22;5860;52.018;8.536;2023-07-09T01:25:04;20.40;99.90
11609;DHT22;5860;52.018;8.536;2023-07-09T01:27:40;20.40;99.90
11609;DHT22;5860;52.018;8.536;2023-07-09T01:30:18;20.40;99.90
11609;DHT22;5860;52.018;8.536;2023-07-09T01:32:50;20.20;99.90
11609;DHT22;5860;52.018;8.536;2023-07-09T01:35:20;20.20;99.90
11609;DHT22;5860;52.018;8.536;2023-07-09T01:37:49;20.10;99.90
11609;DHT22;5860;52.018;8.536;2023-07-09T01:40:18;20.00;99.90
11609;DHT22;5860;52.018;8.536;2023-07-09T01:42:58;20.00;99.90
11609;DHT22;5860;52.018;8.536;2023-07-09T01:45:26;20.00;99.90
11609;DHT22;5860;52.018;8.536;2023-07-09T01:47:54;19.90;99.90
11609;DHT22;5860;52.018;8.536;2023-07-09T01:50:22;20.00;99.90
11609;DHT22;5860;52.018;8.536;2023-07-09T01:52:52;19.80;99.90
11609;DHT22;5860;52.018;8.536;2023-07-09T01:55:20;19.80;99.90
11609;DHT22;5860;52.018;8.536;2023-07-09T01:57:47;19.80;99.90
11609;DHT22;5860;52.018;8.536;2023-07-09T02:00:16;19.80;99.90
11609;DHT22;5860;52.018;8.536;2023-07-09T02:02:45;19.70;99.90
11609;DHT22;5860;52.018;8.536;2023-07-09T02:05:18;19.70;99.90
11609;DHT22;5860;52.018;8.536;2023-07-09T02:07:46;19.70;99.90
11609;DHT22;5860;52.018;8.536;2023-07-09T02:10:15;19.70;99.90
11609;DHT22;5860;52.018;8.536;2023-07-09T02:12:43;19.70;99.90
11609;DHT22;5860;52.018;8.536;2023-07-09T02:15:11;19.70;99.90
11609;DHT22;5860;52.018;8.536;2023-07-09T02:17:38;19.60;99.90
11609;DHT22;5860;52.018;8.536;2023-07-09T02:20:06;19.70;99.90
11609;DHT22;5860;52.018;8.536;2023-07-09T02:22:35;19.20;99.90
11609;DHT22;5860;52.018;8.536;2023-07-09T02:25:02;19.60;99.90
11609;DHT22;5860;52.018;8.536;2023-07-09T02:27:29;19.60;99.90
11609;DHT22;5860;52.018;8.536;2023-07-09T02:29:56;19.60;99.90
11609;DHT22;5860;52.018;8.536;2023-07-09T02:32:25;19.50;99.90
11609;DHT22;5860;52.018;8.536;2023-07-09T02:34:53;19.50;99.90
11609;DHT22;5860;52.018;8.536;2023-07-09T02:37:23;19.60;99.90
11609;DHT22;5860;52.018;8.536;2023-07-09T02:39:50;19.50;99.90
11609;DHT22;5860;52.018;8.536;2023-07-09T02:42:20;19.50;99.90
11609;DHT22;5860;52.018;8.536;2023-07-09T02:44:47;19.50;99.90
11609;DHT22;5860;52.018;8.536;2023-07-09T02:47:14;19.60;99.90
11609;DHT22;5860;52.018;8.536;2023-07-09T02:49:42;19.60;99.90
11609;DHT22;5860;52.018;8.536;2023-07-09T02:52:08;19.60;99.90
11609;DHT22;5860;52.018;8.536;2023-07-09T02:54:35;19.60;99.90
11609;DHT22;5860;52.018;8.536;2023-07-09T02:57:03;19.60;99.90
11609;DHT22;5860;52.018;8.536;2023-07-09T02:59:30;19.50;99.90
11609;DHT22;5860;52.018;8.536;2023-07-09T03:01:57;19.60;99.90
11609;DHT22;5860;52.018;8.536;2023-07-09T03:04:24;19.50;99.90
11609;DHT22;5860;52.018;8.536;2023-07-09T03:06:51;19.40;99.90
11609;DHT22;5860;52.018;8.536;2023-07-09T03:09:20;19.30;99.90
11609;DHT22;5860;52.018;8.536;2023-07-09T03:11:47;19.30;99.90
11609;DHT22;5860;52.018;8.536;2023-07-09T03:14:16;19.20;99.90
11609;DHT22;5860;52.018;8.536;2023-07-09T03:16:43;19.20;99.90
11609;DHT22;5860;52.018;8.536;2023-07-09T03:19:10;19.20;99.90
11609;DHT22;5860;52.018;8.536;2023-07-09T03:21:37;19.30;99.90
11609;DHT22;5860;52.018;8.536;2023-07-09T03:24:05;19.20;99.90
11609;DHT22;5860;52.018;8.536;2023-07-09T03:26:32;19.20;99.90
11609;DHT22;5860;52.018;8.536;2023-07-09T03:28:59;19.20;99.90
11609;DHT22;5860;52.018;8.536;2023-07-09T03:31:26;19.20;99.90
11609;DHT22;5860;52.018;8.536;2023-07-09T03:33:53;19.20;99.90
11609;DHT22;5860;52.018;8.536;2023-07-09T03:36:21;19.20;99.90
11609;DHT22;5860;52.018;8.536;2023-07-09T03:38:48;19.30;99.90
11609;DHT22;5860;52.018;8.536;2023-07-09T03:41:15;19.30;99.90
11609;DHT22;5860;52.018;8.536;2023-07-09T03:43:43;19.40;99.90
11609;DHT22;5860;52.018;8.536;2023-07-09T03:46:10;19.40;99.90
11609;DHT22;5860;52.018;8.536;2023-07-09T03:48:38;19.50;99.90
11609;DHT22;5860;52.018;8.536;2023-07-09T03:51:05;19.50;99.90
11609;DHT22;5860;52.018;8.536;2023-07-09T03:53:32;19.70;99.90
11609;DHT22;5860;52.018;8.536;2023-07-09T03:55:59;19.80;99.90
11609;DHT22;5860;52.018;8.536;2023-07-09T03:58:33;19.90;99.90
11609;DHT22;5860;52.018;8.536;2023-07-09T04:01:00;20.00;99.90
11609;DHT22;5860;52.018;8.536;2023-07-09T04:03:27;20.70;99.90
11609;DHT22;5860;52.018;8.536;2023-07-09T04:05:54;21.50;99.90
11609;DHT22;5860;52.018;8.536;2023-07-09T04:08:21;21.60;99.90
11609;DHT22;5860;52.018;8.536;2023-07-09T04:10:52;21.90;99.90
11609;DHT22;5860;52.018;8.536;2023-07-09T04:13:19;22.40;99.90
11609;DHT22;5860;52.018;8.536;2023-07-09T04:15:46;22.20;99.90
11609;DHT22;5860;52.018;8.536;2023-07-09T04:18:14;22.40;99.90
11609;DHT22;5860;52.018;8.536;2023-07-09T04:20:41;23.00;99.90
11609;DHT22;5860;52.018;8.536;2023-07-09T04:23:08;23.20;99.90
11609;DHT22;5860;52.018;8.536;2023-07-09T04:25:35;24.10;99.90
11609;DHT22;5860;52.018;8.536;2023-07-09T04:28:02;24.50;99.90
11609;DHT22;5860;52.018;8.536;2023-07-09T04:30:29;24.80;99.90
11609;DHT22;5860;52.018;8.536;2023-07-09T04:32:57;24.80;99.90
11609;DHT22;5860;52.018;8.536;2023-07-09T04:35:24;24.40;99.90
11609;DHT22;5860;52.018;8.536;2023-07-09T04:37:51;24.60;99.90
11609;DHT22;5860;52.018;8.536;2023-07-09T04:40:18;24.90;99.90
11609;DHT22;5860;52.018;8.536;2023-07-09T04:42:45;25.40;99.90
11609;DHT22;5860;52.018;8.536;2023-07-09T04:45:13;25.80;99.90
11609;DHT22;5860;52.018;8.536;2023-07-09T04:47:40;25.90;99.90
11609;DHT22;5860;52.018;8.536;2023-07-09T04:50:08;26.70;99.90
11609;DHT22;5860;52.018;8.536;2023-07-09T04:52:41;27.20;99.90
11609;DHT22;5860;52.018;8.536;2023-07-09T04:55:14;26.80;99.90
11609;DHT22;5860;52.018;8.536;2023-07-09T04:57:49;25.70;99.90
11609;DHT22;5860;52.018;8.536;2023-07-09T05:00:19;26.20;99.90
11609;DHT22;5860;52.018;8.536;2023-07-09T05:02:47;26.80;99.90
11609;DHT22;5860;52.018;8.536;2023-07-09T05:05:17;26.80;99.90
11609;DHT22;5860;52.018;8.536;2023-07-09T05:07:58;27.30;99.90
11609;DHT22;5860;52.018;8.536;2023-07-09T05:10:34;27.60;99.90
11609;DHT22;5860;52.018;8.536;2023-07-09T05:13:10;27.70;99.90
11609;DHT22;5860;52.018;8.536;2023-07-09T05:15:45;26.80;99.90
11609;DHT22;5860;52.018;8.536;2023-07-09T05:18:18;28.20;99.90
11609;DHT22;5860;52.018;8.536;2023-07-09T05:20:56;28.10;99.90
11609;DHT22;5860;52.018;8.536;2023-07-09T05:23:29;29.20;99.90
11609;DHT22;5860;52.018;8.536;2023-07-09T05:26:03;29.90;99.90
11609;DHT22;5860;52.018;8.536;2023-07-09T05:28:36;28.20;99.90
11609;DHT22;5860;52.018;8.536;2023-07-09T05:31:04;30.00;99.90
11609;DHT22;5860;52.018;8.536;2023-07-09T05:33:31;27.10;99.90
11609;DHT22;5860;52.018;8.536;2023-07-09T05:35:58;25.40;99.90
11609;DHT22;5860;52.018;8.536;2023-07-09T05:38:26;25.20;99.90
11609;DHT22;5860;52.018;8.536;2023-07-09T05:41:03;27.00;99.90
11609;DHT22;5860;52.018;8.536;2023-07-09T05:43:34;29.10;99.90
11609;DHT22;5860;52.018;8.536;2023-07-09T05:46:05;30.40;99.90
11609;DHT22;5860;52.018;8.536;2023-07-09T05:48:33;29.30;99.90
11609;DHT22;5860;52.018;8.536;2023-07-09T05:51:00;28.70;99.90
11609;DHT22;5860;52.018;8.536;2023-07-09T05:55:59;30.70;99.90
11609;DHT22;5860;52.018;8.536;2023-07-09T05:58:37;30.70;99.90
11609;DHT22;5860;52.018;8.536;2023-07-09T06:01:06;30.90;99.90
11609;DHT22;5860;52.018;8.536;2023-07-09T06:03:39;32.20;99.90
11609;DHT22;5860;52.018;8.536;2023-07-09T06:06:07;30.90;99.90
11609;DHT22;5860;52.018;8.536;2023-07-09T06:08:35;29.20;99.90
11609;DHT22;5860;52.018;8.536;2023-07-09T06:11:06;31.20;99.90
11609;DHT22;5860;52.018;8.536;2023-07-09T06:13:34;30.90;99.90
11609;DHT22;5860;52.018;8.536;2023-07-09T06:16:04;31.00;99.90
11609;DHT22;5860;52.018;8.536;2023-07-09T06:18:32;29.80;99.90
11609;DHT22;5860;52.018;8.536;2023-07-09T06:21:02;31.30;99.90
11609;DHT22;5860;52.018;8.536;2023-07-09T06:23:30;31.70;99.60
11609;DHT22;5860;52.018;8.536;2023-07-09T06:28:27;29.50;99.90
11609;DHT22;5860;52.018;8.536;2023-07-09T06:30:57;30.70;99.90
11609;DHT22;5860;52.018;8.536;2023-07-09T06:33:40;32.10;98.90
11609;DHT22;5860;52.018;8.536;2023-07-09T06:36:08;33.30;94.80
11609;DHT22;5860;52.018;8.536;2023-07-09T06:38:35;33.30;95.10
11609;DHT22;5860;52.018;8.536;2023-07-09T06:41:02;31.70;96.10
11609;DHT22;5860;52.018;8.536;2023-07-09T06:43:30;32.70;95.60
11609;DHT22;5860;52.018;8.536;2023-07-09T06:46:01;33.90;93.50
11609;DHT22;5860;52.018;8.536;2023-07-09T06:48:29;34.60;92.20
11609;DHT22;5860;52.018;8.536;2023-07-09T06:50:58;34.70;91.10
11609;DHT22;5860;52.018;8.536;2023-07-09T06:53:27;34.40;90.50
11609;DHT22;5860;52.018;8.536;2023-07-09T06:55:56;32.20;91.50
11609;DHT22;5860;52.018;8.536;2023-07-09T06:58:27;31.70;92.90
11609;DHT22;5860;52.018;8.536;2023-07-09T07:00:55;31.40;94.10
11609;DHT22;5860;52.018;8.536;2023-07-09T07:03:22;31.70;96.20
11609;DHT22;5860;52.018;8.536;2023-07-09T07:05:53;33.00;94.00
11609;DHT22;5860;52.018;8.536;2023-07-09T07:08:21;31.10;96.20
11609;DHT22;5860;52.018;8.536;2023-07-09T07:10:53;31.90;94.40
11609;DHT22;5860;52.018;8.536;2023-07-09T07:13:36;32.80;92.90
11609;DHT22;5860;52.018;8.536;2023-07-09T07:16:07;33.20;93.10
11609;DHT22;5860;52.018;8.536;2023-07-09T07:18:34;33.60;91.40
11609;DHT22;5860;52.018;8.536;2023-07-09T07:21:02;32.90;92.00
11609;DHT22;5860;52.018;8.536;2023-07-09T07:23:29;32.00;92.70
11609;DHT22;5860;52.018;8.536;2023-07-09T07:25:56;31.80;94.20
11609;DHT22;5860;52.018;8.536;2023-07-09T07:28:23;32.00;93.90
11609;DHT22;5860;52.018;8.536;2023-07-09T07:31:20;33.00;93.40
11609;DHT22;5860;52.018;8.536;2023-07-09T07:33:47;34.50;90.90
11609;DHT22;5860;52.018;8.536;2023-07-09T07:36:13;34.60;90.60
11609;DHT22;5860;52.018;8.536;2023-07-09T07:38:56;35.10;90.40
11609;DHT22;5860;52.018;8.536;2023-07-09T07:41:23;35.80;89.10
11609;DHT22;5860;52.018;8.536;2023-07-09T07:43:50;35.20;89.20
11609;DHT22;5860;52.018;8.536;2023-07-09T07:46:17;35.30;87.70
11609;DHT22;5860;52.018;8.536;2023-07-09T07:48:44;35.70;86.70
11609;DHT22;5860;52.018;8.536;2023-07-09T07:51:11;35.50;84.10
11609;DHT22;5860;52.018;8.536;2023-07-09T07:53:39;35.60;82.90
11609;DHT22;5860;52.018;8.536;2023-07-09T07:56:06;33.10;90.00
11609;DHT22;5860;52.018;8.536;2023-07-09T07:58:33;34.30;87.40
11609;DHT22;5860;52.018;8.536;2023-07-09T08:01:00;33.60;90.70
11609;DHT22;5860;52.018;8.536;2023-07-09T08:03:28;34.50;90.90
11609;DHT22;5860;52.018;8.536;2023-07-09T08:05:55;34.10;89.50
11609;DHT22;5860;52.018;8.536;2023-07-09T08:08:25;33.30;89.10
11609;DHT22;5860;52.018;8.536;2023-07-09T08:11:00;34.70;85.00
11609;DHT22;5860;52.018;8.536;2023-07-09T08:13:28;35.20;78.20
11609;DHT22;5860;52.018;8.536;2023-07-09T08:15:55;35.00;80.10
11609;DHT22;5860;52.018;8.536;2023-07-09T08:18:22;34.30;80.70
11609;DHT22;5860;52.018;8.536;2023-07-09T08:20:48;33.30;84.60
11609;DHT22;5860;52.018;8.536;2023-07-09T08:23:16;33.40;84.30
11609;DHT22;5860;52.018;8.536;2023-07-09T08:25:43;34.70;82.90
11609;DHT22;5860;52.018;8.536;2023-07-09T08:28:09;35.00;67.80
11609;DHT22;5860;52.018;8.536;2023-07-09T08:30:36;34.40;63.90
11609;DHT22;5860;52.018;8.536;2023-07-09T08:33:03;35.40;60.90
11609;DHT22;5860;52.018;8.536;2023-07-09T08:35:30;34.10;60.20
11609;DHT22;5860;52.018;8.536;2023-07-09T08:38:02;34.40;62.10
11609;DHT22;5860;52.018;8.536;2023-07-09T08:40:29;35.10;59.80
11609;DHT22;5860;52.018;8.536;2023-07-09T08:43:02;35.90;59.30
11609;DHT22;5860;52.018;8.536;2023-07-09T08:45:56;35.60;57.60
11609;DHT22;5860;52.018;8.536;2023-07-09T08:48:36;34.70;57.10
11609;DHT22;5860;52.018;8.536;2023-07-09T08:51:17;34.90;58.70
11609;DHT22;5860;52.018;8.536;2023-07-09T08:53:56;34.50;66.60
11609;DHT22;5860;52.018;8.536;2023-07-09T08:56:25;34.80;65.00
11609;DHT22;5860;52.018;8.536;2023-07-09T08:58:55;33.20;70.70
11609;DHT22;5860;52.018;8.536;2023-07-09T09:01:30;34.10;69.20
11609;DHT22;5860;52.018;8.536;2023-07-09T09:04:03;35.20;68.00
11609;DHT22;5860;52.018;8.536;2023-07-09T09:06:32;35.80;65.30
11609;DHT22;5860;52.018;8.536;2023-07-09T09:11:46;33.50;72.70
11609;DHT22;5860;52.018;8.536;2023-07-09T09:14:42;34.20;66.30
11609;DHT22;5860;52.018;8.536;2023-07-09T09:17:13;35.10;62.50
11609;DHT22;5860;52.018;8.536;2023-07-09T09:20:24;33.80;60.60
11609;DHT22;5860;52.018;8.536;2023-07-09T09:25:25;33.80;62.50
11609;DHT22;5860;52.018;8.536;2023-07-09T09:27:54;35.00;59.50
11609;DHT22;5860;52.018;8.536;2023-07-09T09:30:23;35.00;58.60
11609;DHT22;5860;52.018;8.536;2023-07-09T09:32:57;35.20;56.90
11609;DHT22;5860;52.018;8.536;2023-07-09T09:35:32;34.90;54.60
11609;DHT22;5860;52.018;8.536;2023-07-09T09:38:01;35.10;55.70
11609;DHT22;5860;52.018;8.536;2023-07-09T09:40:33;35.80;54.90
11609;DHT22;5860;52.018;8.536;2023-07-09T09:43:01;35.10;55.50
11609;DHT22;5860;52.018;8.536;2023-07-09T09:45:35;36.10;55.40
11609;DHT22;5860;52.018;8.536;2023-07-09T09:48:26;36.60;53.20
11609;DHT22;5860;52.018;8.536;2023-07-09T09:50:53;36.30;52.70
11609;DHT22;5860;52.018;8.536;2023-07-09T09:53:24;35.20;52.60
11609;DHT22;5860;52.018;8.536;2023-07-09T09:55:53;35.50;53.40
11609;DHT22;5860;52.018;8.536;2023-07-09T09:58:27;35.10;54.30
11609;DHT22;5860;52.018;8.536;2023-07-09T10:00:56;34.90;53.40
11609;DHT22;5860;52.018;8.536;2023-07-09T10:03:33;34.30;54.90
11609;DHT22;5860;52.018;8.536;2023-07-09T10:06:13;32.60;57.20
11609;DHT22;5860;52.018;8.536;2023-07-09T10:11:43;33.70;57.30
11609;DHT22;5860;52.018;8.536;2023-07-09T10:16:59;33.50;59.00
11609;DHT22;5860;52.018;8.536;2023-07-09T10:19:39;33.40;56.00
11609;DHT22;5860;52.018;8.536;2023-07-09T10:22:20;33.60;56.70
11609;DHT22;5860;52.018;8.536;2023-07-09T10:34:01;35.00;56.40
11609;DHT22;5860;52.018;8.536;2023-07-09T10:36:48;35.00;52.70
11609;DHT22;5860;52.018;8.536;2023-07-09T10:39:23;35.30;53.30
11609;DHT22;5860;52.018;8.536;2023-07-09T10:41:57;34.10;56.00
11609;DHT22;5860;52.018;8.536;2023-07-09T10:44:33;32.90;58.40
11609;DHT22;5860;52.018;8.536;2023-07-09T10:47:06;34.00;57.80
11609;DHT22;5860;52.018;8.536;2023-07-09T10:49:40;34.50;56.80
11609;DHT22;5860;52.018;8.536;2023-07-09T10:52:28;34.20;56.70
11609;DHT22;5860;52.018;8.536;2023-07-09T10:58:02;33.20;57.50
11609;DHT22;5860;52.018;8.536;2023-07-09T11:00:38;34.30;58.90
11609;DHT22;5860;52.018;8.536;2023-07-09T11:04:23;33.70;57.50
11609;DHT22;5860;52.018;8.536;2023-07-09T11:06:22;34.30;57.80
11609;DHT22;5860;52.018;8.536;2023-07-09T11:08:52;34.20;57.00
11609;DHT22;5860;52.018;8.536;2023-07-09T11:11:28;33.90;56.50
11609;DHT22;5860;52.018;8.536;2023-07-09T11:13:59;33.20;58.40
11609;DHT22;5860;52.018;8.536;2023-07-09T11:16:33;33.20;55.30
11609;DHT22;5860;52.018;8.536;2023-07-09T11:19:04;33.90;56.10
11609;DHT22;5860;52.018;8.536;2023-07-09T11:21:33;32.90;57.50
11609;DHT22;5860;52.018;8.536;2023-07-09T11:24:03;33.00;56.10
11609;DHT22;5860;52.018;8.536;2023-07-09T11:26:34;33.30;56.70
11609;DHT22;5860;52.018;8.536;2023-07-09T11:31:41;33.60;57.00
11609;DHT22;5860;52.018;8.536;2023-07-09T11:34:14;33.30;55.90
11609;DHT22;5860;52.018;8.536;2023-07-09T11:45:06;33.80;55.00
11609;DHT22;5860;52.018;8.536;2023-07-09T11:47:40;33.60;53.70
11609;DHT22;5860;52.018;8.536;2023-07-09T11:50:39;33.60;55.50
11609;DHT22;5860;52.018;8.536;2023-07-09T11:53:18;33.60;56.50
11609;DHT22;5860;52.018;8.536;2023-07-09T11:55:49;33.70;55.50
11609;DHT22;5860;52.018;8.536;2023-07-09T11:58:18;33.60;53.00
11609;DHT22;5860;52.018;8.536;2023-07-09T12:00:57;33.50;52.80
11609;DHT22;5860;52.018;8.536;2023-07-09T12:03:34;33.60;53.00
11609;DHT22;5860;52.018;8.536;2023-07-09T12:06:13;33.30;52.00
11609;DHT22;5860;52.018;8.536;2023-07-09T12:08:45;33.00;53.20
11609;DHT22;5860;52.018;8.536;2023-07-09T12:11:33;33.10;55.10
11609;DHT22;5860;52.018;8.536;2023-07-09T12:14:08;33.60;56.20
11609;DHT22;5860;52.018;8.536;2023-07-09T12:16:40;33.50;55.40
11609;DHT22;5860;52.018;8.536;2023-07-09T12:19:10;33.30;53.10
11609;DHT22;5860;52.018;8.536;2023-07-09T12:21:42;33.40;52.60
11609;DHT22;5860;52.018;8.536;2023-07-09T12:24:21;33.30;54.50
11609;DHT22;5860;52.018;8.536;2023-07-09T12:26:51;33.00;55.70
11609;DHT22;5860;52.018;8.536;2023-07-09T12:29:19;33.20;54.70
11609;DHT22;5860;52.018;8.536;2023-07-09T12:31:45;33.60;54.60
11609;DHT22;5860;52.018;8.536;2023-07-09T12:34:14;33.70;53.30
11609;DHT22;5860;52.018;8.536;2023-07-09T12:36:49;33.80;52.70
11609;DHT22;5860;52.018;8.536;2023-07-09T12:39:24;33.60;49.70
11609;DHT22;5860;52.018;8.536;2023-07-09T12:41:56;33.00;50.80
11609;DHT22;5860;52.018;8.536;2023-07-09T12:44:24;33.30;52.50
11609;DHT22;5860;52.018;8.536;2023-07-09T12:46:53;33.30;52.90
11609;DHT22;5860;52.018;8.536;2023-07-09T12:49:23;33.60;51.30
11609;DHT22;5860;52.018;8.536;2023-07-09T12:51:50;34.00;52.10
11609;DHT22;5860;52.018;8.536;2023-07-09T12:54:19;34.20;49.90
11609;DHT22;5860;52.018;8.536;2023-07-09T12:56:51;33.90;48.60
11609;DHT22;5860;52.018;8.536;2023-07-09T12:59:27;33.70;46.30
11609;DHT22;5860;52.018;8.536;2023-07-09T13:02:19;33.90;45.90
11609;DHT22;5860;52.018;8.536;2023-07-09T13:04:47;34.10;45.50
11609;DHT22;5860;52.018;8.536;2023-07-09T13:07:41;34.30;43.50
11609;DHT22;5860;52.018;8.536;2023-07-09T13:10:23;33.60;43.90
11609;DHT22;5860;52.018;8.536;2023-07-09T13:12:55;33.60;44.10
11609;DHT22;5860;52.018;8.536;2023-07-09T13:18:05;33.60;43.20
11609;DHT22;5860;52.018;8.536;2023-07-09T13:20:36;33.70;42.20
11609;DHT22;5860;52.018;8.536;2023-07-09T13:23:14;33.70;40.70
11609;DHT22;5860;52.018;8.536;2023-07-09T13:25:42;33.70;41.20
11609;DHT22;5860;52.018;8.536;2023-07-09T13:28:23;34.00;42.60
11609;DHT22;5860;52.018;8.536;2023-07-09T13:30:58;34.10;45.60
11609;DHT22;5860;52.018;8.536;2023-07-09T13:33:26;34.40;42.70
11609;DHT22;5860;52.018;8.536;2023-07-09T13:35:53;34.40;40.30
11609;DHT22;5860;52.018;8.536;2023-07-09T13:38:22;34.50;40.40
11609;DHT22;5860;52.018;8.536;2023-07-09T13:40:53;34.70;41.30
11609;DHT22;5860;52.018;8.536;2023-07-09T13:43:31;34.30;41.50
11609;DHT22;5860;52.018;8.536;2023-07-09T13:46:00;34.40;42.20
11609;DHT22;5860;52.018;8.536;2023-07-09T13:48:31;34.60;41.50
11609;DHT22;5860;52.018;8.536;2023-07-09T13:50:59;34.60;41.70
11609;DHT22;5860;52.018;8.536;2023-07-09T13:53:29;34.50;40.70
11609;DHT22;5860;52.018;8.536;2023-07-09T13:55:59;34.50;40.80
11609;DHT22;5860;52.018;8.536;2023-07-09T13:58:27;34.90;41.60
11609;DHT22;5860;52.018;8.536;2023-07-09T14:00:59;34.80;40.30
11609;DHT22;5860;52.018;8.536;2023-07-09T14:03:33;34.80;39.90
11609;DHT22;5860;52.018;8.536;2023-07-09T14:06:02;34.40;42.10
11609;DHT22;5860;52.018;8.536;2023-07-09T14:08:29;34.50;42.30
11609;DHT22;5860;52.018;8.536;2023-07-09T14:10:55;34.30;42.00
11609;DHT22;5860;52.018;8.536;2023-07-09T14:13:24;34.00;41.70
11609;DHT22;5860;52.018;8.536;2023-07-09T14:15:51;33.90;42.00
11609;DHT22;5860;52.018;8.536;2023-07-09T14:18:20;33.90;42.20
11609;DHT22;5860;52.018;8.536;2023-07-09T14:20:49;34.20;44.20
11609;DHT22;5860;52.018;8.536;2023-07-09T14:23:18;34.40;42.50
11609;DHT22;5860;52.018;8.536;2023-07-09T14:25:45;34.30;41.90
11609;DHT22;5860;52.018;8.536;2023-07-09T14:28:19;34.20;43.20
11609;DHT22;5860;52.018;8.536;2023-07-09T14:30:48;34.10;42.20
11609;DHT22;5860;52.018;8.536;2023-07-09T14:33:21;34.10;42.40
11609;DHT22;5860;52.018;8.536;2023-07-09T14:35:49;34.40;42.10
11609;DHT22;5860;52.018;8.536;2023-07-09T14:38:21;34.20;41.80
11609;DHT22;5860;52.018;8.536;2023-07-09T14:40:55;33.90;42.90
11609;DHT22;5860;52.018;8.536;2023-07-09T14:43:22;33.80;43.30
11609;DHT22;5860;52.018;8.536;2023-07-09T14:45:49;33.80;44.90
11609;DHT22;5860;52.018;8.536;2023-07-09T14:48:18;33.80;44.60
11609;DHT22;5860;52.018;8.536;2023-07-09T14:50:46;33.70;44.30
11609;DHT22;5860;52.018;8.536;2023-07-09T14:53:16;33.60;44.90
11609;DHT22;5860;52.018;8.536;2023-07-09T14:55:43;33.70;45.50
11609;DHT22;5860;52.018;8.536;2023-07-09T14:58:17;33.90;44.50
11609;DHT22;5860;52.018;8.536;2023-07-09T15:00:45;34.00;44.10
11609;DHT22;5860;52.018;8.536;2023-07-09T15:03:25;33.80;44.30
11609;DHT22;5860;52.018;8.536;2023-07-09T15:05:53;33.70;44.00
11609;DHT22;5860;52.018;8.536;2023-07-09T15:08:24;33.80;44.20
11609;DHT22;5860;52.018;8.536;2023-07-09T15:10:53;33.90;44.00
11609;DHT22;5860;52.018;8.536;2023-07-09T15:13:31;33.80;43.70
11609;DHT22;5860;52.018;8.536;2023-07-09T15:15:59;33.90;44.10
11609;DHT22;5860;52.018;8.536;2023-07-09T15:18:26;33.90;44.80
11609;DHT22;5860;52.018;8.536;2023-07-09T15:20:56;33.90;44.20
11609;DHT22;5860;52.018;8.536;2023-07-09T15:23:24;33.90;44.80
11609;DHT22;5860;52.018;8.536;2023-07-09T15:25:52;33.70;45.40
11609;DHT22;5860;52.018;8.536;2023-07-09T15:28:19;33.30;46.00
11609;DHT22;5860;52.018;8.536;2023-07-09T15:30:46;33.60;46.90
11609;DHT22;5860;52.018;8.536;2023-07-09T15:33:16;33.60;47.90
11609;DHT22;5860;52.018;8.536;2023-07-09T15:35:45;33.20;47.40
11609;DHT22;5860;52.018;8.536;2023-07-09T15:38:28;33.10;48.10
11609;DHT22;5860;52.018;8.536;2023-07-09T15:40:56;33.10;47.70
11609;DHT22;5860;52.018;8.536;2023-07-09T15:43:24;33.00;48.00
11609;DHT22;5860;52.018;8.536;2023-07-09T15:45:54;32.80;49.10
11609;DHT22;5860;52.018;8.536;2023-07-09T15:48:27;32.90;50.50
11609;DHT22;5860;52.018;8.536;2023-07-09T15:50:57;32.70;49.50
11609;DHT22;5860;52.018;8.536;2023-07-09T15:53:25;32.70;49.20
11609;DHT22;5860;52.018;8.536;2023-07-09T15:55:58;32.80;49.60
11609;DHT22;5860;52.018;8.536;2023-07-09T15:58:38;32.60;50.50
11609;DHT22;5860;52.018;8.536;2023-07-09T16:01:13;32.50;51.90
11609;DHT22;5860;52.018;8.536;2023-07-09T16:04:01;32.50;52.80
11609;DHT22;5860;52.018;8.536;2023-07-09T16:06:35;32.50;52.80
11609;DHT22;5860;52.018;8.536;2023-07-09T16:09:05;32.20;54.40
11609;DHT22;5860;52.018;8.536;2023-07-09T16:11:32;32.10;55.90
11609;DHT22;5860;52.018;8.536;2023-07-09T16:13:59;32.00;55.60
11609;DHT22;5860;52.018;8.536;2023-07-09T16:16:26;31.90;57.00
11609;DHT22;5860;52.018;8.536;2023-07-09T16:18:53;31.80;57.70
11609;DHT22;5860;52.018;8.536;2023-07-09T16:21:29;31.80;58.30
11609;DHT22;5860;52.018;8.536;2023-07-09T16:23:58;31.80;58.30
11609;DHT22;5860;52.018;8.536;2023-07-09T16:26:28;31.80;59.00
11609;DHT22;5860;52.018;8.536;2023-07-09T16:28:55;31.70;59.90
11609;DHT22;5860;52.018;8.536;2023-07-09T16:31:22;31.50;63.50
11609;DHT22;5860;52.018;8.536;2023-07-09T16:33:49;31.30;63.60
11609;DHT22;5860;52.018;8.536;2023-07-09T16:36:17;31.30;64.20
11609;DHT22;5860;52.018;8.536;2023-07-09T16:38:45;31.20;64.90
11609;DHT22;5860;52.018;8.536;2023-07-09T16:41:12;31.30;66.90
11609;DHT22;5860;52.018;8.536;2023-07-09T16:43:39;31.10;69.00
11609;DHT22;5860;52.018;8.536;2023-07-09T16:46:21;31.00;70.20
11609;DHT22;5860;52.018;8.536;2023-07-09T16:48:51;30.90;73.80
11609;DHT22;5860;52.018;8.536;2023-07-09T16:51:20;30.90;76.00
11609;DHT22;5860;52.018;8.536;2023-07-09T16:53:48;30.80;76.20
11609;DHT22;5860;52.018;8.536;2023-07-09T16:56:15;30.70;76.90